sensor_id;sensor_type;location;lat;lon;timestamp;P1;durP1;ratioP1;P2;durP2;ratioP2
4726;SDS011;2377;51.734;8.950;2023-04-25T00:02:23;18.37;;;7.20;;
4726;SDS011;2377;51.734;8.950;2023-04-25T00:04:50;17.40;;;7.87;;
4726;SDS011;2377;51.734;8.950;2023-04-25T00:07:17;17.23;;;8.07;;
4726;SDS011;2377;51.734;8.950;2023-04-25T00:09:44;17.50;;;8.43;;
4726;SDS011;2377;51.734;8.950;2023-04-25T00:12:11;15.80;;;7.90;;
4726;SDS011;2377;51.734;8.950;2023-04-25T00:14:40;17.27;;;7.97;;
4726;SDS011;2377;51.734;8.950;2023-04-25T00:17:07;19.80;;;8.27;;
4726;SDS011;2377;51.734;8.950;2023-04-25T00:19:34;29.17;;;9.20;;
4726;SDS011;2377;51.734;8.950;2023-04-25T00:22:02;22.33;;;8.73;;
4726;SDS011;2377;51.734;8.950;2023-04-25T00:24:30;18.20;;;7.60;;
4726;SDS011;2377;51.734;8.950;2023-04-25T00:26:57;14.77;;;7.20;;
4726;SDS011;2377;51.734;8.950;2023-04-25T00:29:24;26.47;;;7.43;;
4726;SDS011;2377;51.734;8.950;2023-04-25T00:31:52;18.10;;;7.47;;
4726;SDS011;2377;51.734;8.950;2023-04-25T00:34:19;18.30;;;7.73;;
4726;SDS011;2377;51.734;8.950;2023-04-25T00:36:46;18.00;;;7.83;;
4726;SDS011;2377;51.734;8.950;2023-04-25T00:39:13;19.07;;;7.37;;
4726;SDS011;2377;51.734;8.950;2023-04-25T00:41:39;18.30;;;6.27;;
4726;SDS011;2377;51.734;8.950;2023-04-25T00:44:08;16.40;;;6.23;;
4726;SDS011;2377;51.734;8.950;2023-04-25T00:46:36;19.47;;;7.37;;
4726;SDS011;2377;51.734;8.950;2023-04-25T00:49:06;30.07;;;8.20;;
4726;SDS011;2377;51.734;8.950;2023-04-25T00:51:33;19.37;;;7.00;;
4726;SDS011;2377;51.734;8.950;2023-04-25T00:54:01;26.50;;;8.20;;
4726;SDS011;2377;51.734;8.950;2023-04-25T00:56:28;15.70;;;7.00;;
4726;SDS011;2377;51.734;8.950;2023-04-25T00:58:55;18.17;;;7.40;;
4726;SDS011;2377;51.734;8.950;2023-04-25T01:01:23;19.83;;;8.70;;
4726;SDS011;2377;51.734;8.950;2023-04-25T01:03:53;23.03;;;10.00;;
4726;SDS011;2377;51.734;8.950;2023-04-25T01:06:21;23.37;;;8.87;;
4726;SDS011;2377;51.734;8.950;2023-04-25T01:08:48;23.07;;;9.73;;
4726;SDS011;2377;51.734;8.950;2023-04-25T01:11:16;25.30;;;10.50;;
4726;SDS011;2377;51.734;8.950;2023-04-25T01:13:43;28.37;;;12.90;;
4726;SDS011;2377;51.734;8.950;2023-04-25T01:16:10;31.50;;;11.40;;
4726;SDS011;2377;51.734;8.950;2023-04-25T01:18:38;34.00;;;11.33;;
4726;SDS011;2377;51.734;8.950;2023-04-25T01:21:08;28.90;;;13.03;;
4726;SDS011;2377;51.734;8.950;2023-04-25T01:23:37;23.10;;;12.53;;
4726;SDS011;2377;51.734;8.950;2023-04-25T01:26:06;36.37;;;12.87;;
4726;SDS011;2377;51.734;8.950;2023-04-25T01:28:34;27.87;;;13.60;;
4726;SDS011;2377;51.734;8.950;2023-04-25T01:31:01;32.33;;;12.83;;
4726;SDS011;2377;51.734;8.950;2023-04-25T01:33:29;26.73;;;13.70;;
4726;SDS011;2377;51.734;8.950;2023-04-25T01:35:56;25.53;;;10.47;;
4726;SDS011;2377;51.734;8.950;2023-04-25T01:38:24;24.40;;;11.27;;
4726;SDS011;2377;51.734;8.950;2023-04-25T01:40:51;24.60;;;13.03;;
4726;SDS011;2377;51.734;8.950;2023-04-25T01:43:20;29.77;;;12.33;;
4726;SDS011;2377;51.734;8.950;2023-04-25T01:45:48;31.77;;;12.57;;
4726;SDS011;2377;51.734;8.950;2023-04-25T01:48:16;26.10;;;12.83;;
4726;SDS011;2377;51.734;8.950;2023-04-25T01:50:43;35.30;;;13.77;;
4726;SDS011;2377;51.734;8.950;2023-04-25T01:53:13;25.33;;;12.30;;
4726;SDS011;2377;51.734;8.950;2023-04-25T01:55:42;24.63;;;12.37;;
4726;SDS011;2377;51.734;8.950;2023-04-25T01:58:09;29.57;;;12.60;;
4726;SDS011;2377;51.734;8.950;2023-04-25T02:00:38;28.90;;;13.70;;
4726;SDS011;2377;51.734;8.950;2023-04-25T02:03:05;27.83;;;12.97;;
4726;SDS011;2377;51.734;8.950;2023-04-25T02:05:34;29.90;;;15.60;;
4726;SDS011;2377;51.734;8.950;2023-04-25T02:08:02;35.53;;;15.00;;
4726;SDS011;2377;51.734;8.950;2023-04-25T02:10:31;31.27;;;14.30;;
4726;SDS011;2377;51.734;8.950;2023-04-25T02:13:00;29.70;;;13.40;;
4726;SDS011;2377;51.734;8.950;2023-04-25T02:15:27;33.77;;;17.00;;
4726;SDS011;2377;51.734;8.950;2023-04-25T02:17:54;28.43;;;14.47;;
4726;SDS011;2377;51.734;8.950;2023-04-25T02:20:22;34.40;;;14.60;;
4726;SDS011;2377;51.734;8.950;2023-04-25T02:22:51;28.13;;;15.33;;
4726;SDS011;2377;51.734;8.950;2023-04-25T02:25:18;39.43;;;18.30;;
4726;SDS011;2377;51.734;8.950;2023-04-25T02:27:45;32.43;;;17.43;;
4726;SDS011;2377;51.734;8.950;2023-04-25T02:30:14;34.00;;;16.87;;
4726;SDS011;2377;51.734;8.950;2023-04-25T02:32:41;31.20;;;16.13;;
4726;SDS011;2377;51.734;8.950;2023-04-25T02:35:08;30.30;;;16.60;;
4726;SDS011;2377;51.734;8.950;2023-04-25T02:37:36;25.17;;;15.90;;
4726;SDS011;2377;51.734;8.950;2023-04-25T02:40:05;27.87;;;16.23;;
4726;SDS011;2377;51.734;8.950;2023-04-25T02:42:33;28.90;;;15.50;;
4726;SDS011;2377;51.734;8.950;2023-04-25T02:45:00;34.47;;;17.00;;
4726;SDS011;2377;51.734;8.950;2023-04-25T02:47:29;29.37;;;17.37;;
4726;SDS011;2377;51.734;8.950;2023-04-25T02:49:56;27.33;;;14.83;;
4726;SDS011;2377;51.734;8.950;2023-04-25T02:52:23;32.50;;;17.50;;
4726;SDS011;2377;51.734;8.950;2023-04-25T02:54:50;29.43;;;15.37;;
4726;SDS011;2377;51.734;8.950;2023-04-25T02:57:17;31.33;;;15.40;;
4726;SDS011;2377;51.734;8.950;2023-04-25T02:59:44;25.40;;;15.67;;
4726;SDS011;2377;51.734;8.950;2023-04-25T03:02:11;35.63;;;17.70;;
4726;SDS011;2377;51.734;8.950;2023-04-25T03:04:39;21.50;;;13.30;;
4726;SDS011;2377;51.734;8.950;2023-04-25T03:07:06;29.50;;;12.80;;
4726;SDS011;2377;51.734;8.950;2023-04-25T03:09:34;22.30;;;12.20;;
4726;SDS011;2377;51.734;8.950;2023-04-25T03:12:01;24.00;;;12.97;;
4726;SDS011;2377;51.734;8.950;2023-04-25T03:14:28;17.03;;;11.67;;
4726;SDS011;2377;51.734;8.950;2023-04-25T03:16:55;21.50;;;13.50;;
4726;SDS011;2377;51.734;8.950;2023-04-25T03:19:21;22.33;;;12.03;;
4726;SDS011;2377;51.734;8.950;2023-04-25T03:21:50;24.33;;;11.77;;
4726;SDS011;2377;51.734;8.950;2023-04-25T03:24:17;20.50;;;11.83;;
4726;SDS011;2377;51.734;8.950;2023-04-25T03:26:43;22.30;;;11.33;;
4726;SDS011;2377;51.734;8.950;2023-04-25T03:29:10;22.30;;;11.20;;
4726;SDS011;2377;51.734;8.950;2023-04-25T03:31:37;12.63;;;8.80;;
4726;SDS011;2377;51.734;8.950;2023-04-25T03:34:04;14.70;;;9.23;;
4726;SDS011;2377;51.734;8.950;2023-04-25T03:36:31;17.77;;;9.77;;
4726;SDS011;2377;51.734;8.950;2023-04-25T03:39:00;16.33;;;9.50;;
4726;SDS011;2377;51.734;8.950;2023-04-25T03:41:27;17.10;;;8.67;;
4726;SDS011;2377;51.734;8.950;2023-04-25T03:43:54;14.37;;;8.10;;
4726;SDS011;2377;51.734;8.950;2023-04-25T03:46:21;12.73;;;7.87;;
4726;SDS011;2377;51.734;8.950;2023-04-25T03:48:48;16.83;;;7.97;;
4726;SDS011;2377;51.734;8.950;2023-04-25T03:51:15;8.33;;;6.00;;
4726;SDS011;2377;51.734;8.950;2023-04-25T03:53:42;8.93;;;5.87;;
4726;SDS011;2377;51.734;8.950;2023-04-25T03:56:10;9.43;;;5.97;;
4726;SDS011;2377;51.734;8.950;2023-04-25T03:58:37;7.50;;;5.57;;
4726;SDS011;2377;51.734;8.950;2023-04-25T04:01:04;7.63;;;4.40;;
4726;SDS011;2377;51.734;8.950;2023-04-25T04:03:32;11.73;;;6.70;;
4726;SDS011;2377;51.734;8.950;2023-04-25T04:06:00;12.20;;;6.73;;
4726;SDS011;2377;51.734;8.950;2023-04-25T04:08:28;7.03;;;4.80;;
4726;SDS011;2377;51.734;8.950;2023-04-25T04:10:56;8.80;;;5.47;;
4726;SDS011;2377;51.734;8.950;2023-04-25T04:13:25;14.60;;;6.00;;
4726;SDS011;2377;51.734;8.950;2023-04-25T04:15:52;14.87;;;5.70;;
4726;SDS011;2377;51.734;8.950;2023-04-25T04:18:19;8.30;;;4.00;;
4726;SDS011;2377;51.734;8.950;2023-04-25T04:20:46;11.20;;;4.90;;
4726;SDS011;2377;51.734;8.950;2023-04-25T04:23:13;7.77;;;4.50;;
4726;SDS011;2377;51.734;8.950;2023-04-25T04:25:40;10.63;;;4.13;;
4726;SDS011;2377;51.734;8.950;2023-04-25T04:28:07;11.73;;;4.53;;
4726;SDS011;2377;51.734;8.950;2023-04-25T04:30:35;10.70;;;4.07;;
4726;SDS011;2377;51.734;8.950;2023-04-25T04:33:02;9.97;;;3.80;;
4726;SDS011;2377;51.734;8.950;2023-04-25T04:35:29;13.07;;;4.73;;
4726;SDS011;2377;51.734;8.950;2023-04-25T04:37:56;8.73;;;4.30;;
4726;SDS011;2377;51.734;8.950;2023-04-25T04:40:23;14.70;;;4.90;;
4726;SDS011;2377;51.734;8.950;2023-04-25T04:42:50;14.73;;;4.90;;
4726;SDS011;2377;51.734;8.950;2023-04-25T04:45:18;16.00;;;4.90;;
4726;SDS011;2377;51.734;8.950;2023-04-25T04:47:46;14.50;;;5.27;;
4726;SDS011;2377;51.734;8.950;2023-04-25T04:50:14;16.60;;;5.57;;
4726;SDS011;2377;51.734;8.950;2023-04-25T04:52:42;13.20;;;4.80;;
4726;SDS011;2377;51.734;8.950;2023-04-25T04:55:08;18.07;;;5.23;;
4726;SDS011;2377;51.734;8.950;2023-04-25T04:57:35;19.90;;;6.47;;
4726;SDS011;2377;51.734;8.950;2023-04-25T05:00:04;25.47;;;6.10;;
4726;SDS011;2377;51.734;8.950;2023-04-25T05:02:35;23.00;;;7.50;;
4726;SDS011;2377;51.734;8.950;2023-04-25T05:05:05;21.53;;;6.60;;
4726;SDS011;2377;51.734;8.950;2023-04-25T05:07:32;17.70;;;6.67;;
4726;SDS011;2377;51.734;8.950;2023-04-25T05:09:59;22.30;;;7.27;;
4726;SDS011;2377;51.734;8.950;2023-04-25T05:12:26;20.53;;;6.97;;
4726;SDS011;2377;51.734;8.950;2023-04-25T05:14:53;24.87;;;6.97;;
4726;SDS011;2377;51.734;8.950;2023-04-25T05:17:20;18.97;;;6.73;;
4726;SDS011;2377;51.734;8.950;2023-04-25T05:19:47;23.10;;;6.53;;
4726;SDS011;2377;51.734;8.950;2023-04-25T05:22:15;22.97;;;7.50;;
4726;SDS011;2377;51.734;8.950;2023-04-25T05:24:42;25.67;;;7.07;;
4726;SDS011;2377;51.734;8.950;2023-04-25T05:27:09;19.70;;;6.80;;
4726;SDS011;2377;51.734;8.950;2023-04-25T05:29:36;30.93;;;8.43;;
4726;SDS011;2377;51.734;8.950;2023-04-25T05:32:03;22.47;;;7.27;;
4726;SDS011;2377;51.734;8.950;2023-04-25T05:34:32;23.50;;;7.20;;
4726;SDS011;2377;51.734;8.950;2023-04-25T05:36:59;19.83;;;6.60;;
4726;SDS011;2377;51.734;8.950;2023-04-25T05:39:27;27.90;;;7.43;;
4726;SDS011;2377;51.734;8.950;2023-04-25T05:41:55;28.90;;;7.47;;
4726;SDS011;2377;51.734;8.950;2023-04-25T05:44:22;23.17;;;7.17;;
4726;SDS011;2377;51.734;8.950;2023-04-25T05:46:49;20.80;;;7.20;;
4726;SDS011;2377;51.734;8.950;2023-04-25T05:49:16;29.43;;;7.87;;
4726;SDS011;2377;51.734;8.950;2023-04-25T05:51:42;20.17;;;7.10;;
4726;SDS011;2377;51.734;8.950;2023-04-25T05:54:09;26.70;;;7.80;;
4726;SDS011;2377;51.734;8.950;2023-04-25T05:56:38;23.40;;;6.87;;
4726;SDS011;2377;51.734;8.950;2023-04-25T05:59:05;26.40;;;7.80;;
4726;SDS011;2377;51.734;8.950;2023-04-25T06:01:32;22.90;;;7.40;;
4726;SDS011;2377;51.734;8.950;2023-04-25T06:03:58;26.17;;;7.83;;
4726;SDS011;2377;51.734;8.950;2023-04-25T06:06:26;29.57;;;7.90;;
4726;SDS011;2377;51.734;8.950;2023-04-25T06:08:53;30.47;;;8.87;;
4726;SDS011;2377;51.734;8.950;2023-04-25T06:11:20;32.33;;;8.20;;
4726;SDS011;2377;51.734;8.950;2023-04-25T06:13:48;28.10;;;7.70;;
4726;SDS011;2377;51.734;8.950;2023-04-25T06:16:15;24.50;;;7.53;;
4726;SDS011;2377;51.734;8.950;2023-04-25T06:18:42;26.13;;;8.73;;
4726;SDS011;2377;51.734;8.950;2023-04-25T06:21:09;23.93;;;8.43;;
4726;SDS011;2377;51.734;8.950;2023-04-25T06:23:36;18.53;;;6.87;;
4726;SDS011;2377;51.734;8.950;2023-04-25T06:26:03;23.73;;;6.40;;
4726;SDS011;2377;51.734;8.950;2023-04-25T06:28:30;20.93;;;6.50;;
4726;SDS011;2377;51.734;8.950;2023-04-25T06:30:58;27.13;;;8.60;;
4726;SDS011;2377;51.734;8.950;2023-04-25T06:33:25;22.97;;;8.47;;
4726;SDS011;2377;51.734;8.950;2023-04-25T06:35:52;33.67;;;7.90;;
4726;SDS011;2377;51.734;8.950;2023-04-25T06:38:19;23.23;;;8.27;;
4726;SDS011;2377;51.734;8.950;2023-04-25T06:40:45;21.23;;;7.67;;
4726;SDS011;2377;51.734;8.950;2023-04-25T06:43:12;21.07;;;6.57;;
4726;SDS011;2377;51.734;8.950;2023-04-25T06:45:40;16.27;;;7.20;;
4726;SDS011;2377;51.734;8.950;2023-04-25T06:48:08;22.90;;;7.10;;
4726;SDS011;2377;51.734;8.950;2023-04-25T06:50:35;26.77;;;9.00;;
4726;SDS011;2377;51.734;8.950;2023-04-25T06:53:02;21.97;;;6.77;;
4726;SDS011;2377;51.734;8.950;2023-04-25T06:55:29;18.43;;;6.23;;
4726;SDS011;2377;51.734;8.950;2023-04-25T06:57:56;15.57;;;6.20;;
4726;SDS011;2377;51.734;8.950;2023-04-25T07:00:23;22.00;;;7.93;;
4726;SDS011;2377;51.734;8.950;2023-04-25T07:02:50;21.37;;;6.80;;
4726;SDS011;2377;51.734;8.950;2023-04-25T07:05:18;17.47;;;6.47;;
4726;SDS011;2377;51.734;8.950;2023-04-25T07:07:45;22.03;;;6.60;;
4726;SDS011;2377;51.734;8.950;2023-04-25T07:10:12;23.40;;;6.20;;
4726;SDS011;2377;51.734;8.950;2023-04-25T07:12:40;19.83;;;6.10;;
4726;SDS011;2377;51.734;8.950;2023-04-25T07:15:07;15.00;;;6.03;;
4726;SDS011;2377;51.734;8.950;2023-04-25T07:17:36;28.07;;;6.90;;
4726;SDS011;2377;51.734;8.950;2023-04-25T07:20:03;19.33;;;6.10;;
4726;SDS011;2377;51.734;8.950;2023-04-25T07:22:34;24.90;;;7.00;;
4726;SDS011;2377;51.734;8.950;2023-04-25T07:25:01;16.87;;;6.17;;
4726;SDS011;2377;51.734;8.950;2023-04-25T07:27:29;16.70;;;5.90;;
4726;SDS011;2377;51.734;8.950;2023-04-25T07:29:56;18.23;;;6.03;;
4726;SDS011;2377;51.734;8.950;2023-04-25T07:32:23;24.73;;;6.30;;
4726;SDS011;2377;51.734;8.950;2023-04-25T07:34:51;17.73;;;6.00;;
4726;SDS011;2377;51.734;8.950;2023-04-25T07:37:18;17.67;;;5.87;;
4726;SDS011;2377;51.734;8.950;2023-04-25T07:39:46;13.20;;;4.67;;
4726;SDS011;2377;51.734;8.950;2023-04-25T07:42:13;17.37;;;5.23;;
4726;SDS011;2377;51.734;8.950;2023-04-25T07:44:43;19.73;;;5.30;;
4726;SDS011;2377;51.734;8.950;2023-04-25T07:47:10;14.10;;;5.00;;
4726;SDS011;2377;51.734;8.950;2023-04-25T07:49:37;13.20;;;5.17;;
4726;SDS011;2377;51.734;8.950;2023-04-25T07:52:05;24.30;;;6.53;;
4726;SDS011;2377;51.734;8.950;2023-04-25T07:54:32;21.03;;;6.80;;
4726;SDS011;2377;51.734;8.950;2023-04-25T07:57:00;18.97;;;6.53;;
4726;SDS011;2377;51.734;8.950;2023-04-25T07:59:28;24.23;;;4.80;;
4726;SDS011;2377;51.734;8.950;2023-04-25T08:01:55;29.23;;;6.07;;
4726;SDS011;2377;51.734;8.950;2023-04-25T08:04:22;12.13;;;4.60;;
4726;SDS011;2377;51.734;8.950;2023-04-25T08:06:50;28.20;;;5.40;;
4726;SDS011;2377;51.734;8.950;2023-04-25T08:09:17;15.00;;;4.90;;
4726;SDS011;2377;51.734;8.950;2023-04-25T08:11:44;17.67;;;4.77;;
4726;SDS011;2377;51.734;8.950;2023-04-25T08:14:13;12.33;;;4.33;;
4726;SDS011;2377;51.734;8.950;2023-04-25T08:16:40;21.83;;;4.43;;
4726;SDS011;2377;51.734;8.950;2023-04-25T08:19:07;20.43;;;4.93;;
4726;SDS011;2377;51.734;8.950;2023-04-25T08:21:34;13.27;;;5.00;;
4726;SDS011;2377;51.734;8.950;2023-04-25T08:24:00;15.87;;;4.30;;
4726;SDS011;2377;51.734;8.950;2023-04-25T08:26:27;20.33;;;5.37;;
4726;SDS011;2377;51.734;8.950;2023-04-25T08:28:55;14.43;;;4.10;;
4726;SDS011;2377;51.734;8.950;2023-04-25T08:31:23;18.40;;;4.33;;
4726;SDS011;2377;51.734;8.950;2023-04-25T08:33:51;18.53;;;4.47;;
4726;SDS011;2377;51.734;8.950;2023-04-25T08:36:18;16.13;;;4.40;;
4726;SDS011;2377;51.734;8.950;2023-04-25T08:38:45;16.70;;;4.30;;
4726;SDS011;2377;51.734;8.950;2023-04-25T08:41:12;17.23;;;4.27;;
4726;SDS011;2377;51.734;8.950;2023-04-25T08:43:41;15.80;;;4.50;;
4726;SDS011;2377;51.734;8.950;2023-04-25T08:46:09;12.80;;;3.77;;
4726;SDS011;2377;51.734;8.950;2023-04-25T08:48:40;13.20;;;3.67;;
4726;SDS011;2377;51.734;8.950;2023-04-25T08:51:10;19.00;;;4.10;;
4726;SDS011;2377;51.734;8.950;2023-04-25T08:53:50;13.77;;;3.90;;
4726;SDS011;2377;51.734;8.950;2023-04-25T08:56:18;10.13;;;3.50;;
4726;SDS011;2377;51.734;8.950;2023-04-25T08:58:47;17.80;;;4.50;;
4726;SDS011;2377;51.734;8.950;2023-04-25T09:01:15;26.00;;;4.10;;
4726;SDS011;2377;51.734;8.950;2023-04-25T09:03:44;11.93;;;3.50;;
4726;SDS011;2377;51.734;8.950;2023-04-25T09:06:12;21.47;;;4.53;;
4726;SDS011;2377;51.734;8.950;2023-04-25T09:08:41;17.30;;;3.63;;
4726;SDS011;2377;51.734;8.950;2023-04-25T09:11:08;12.50;;;3.90;;
4726;SDS011;2377;51.734;8.950;2023-04-25T09:13:35;14.27;;;3.60;;
4726;SDS011;2377;51.734;8.950;2023-04-25T09:16:02;11.07;;;3.73;;
4726;SDS011;2377;51.734;8.950;2023-04-25T09:18:29;13.17;;;4.70;;
4726;SDS011;2377;51.734;8.950;2023-04-25T09:21:04;14.40;;;4.43;;
4726;SDS011;2377;51.734;8.950;2023-04-25T09:23:38;10.80;;;3.83;;
4726;SDS011;2377;51.734;8.950;2023-04-25T09:26:07;9.23;;;3.40;;
4726;SDS011;2377;51.734;8.950;2023-04-25T09:28:34;12.90;;;3.53;;
4726;SDS011;2377;51.734;8.950;2023-04-25T09:31:02;25.77;;;5.00;;
4726;SDS011;2377;51.734;8.950;2023-04-25T09:33:30;16.03;;;4.17;;
4726;SDS011;2377;51.734;8.950;2023-04-25T09:36:05;14.37;;;3.67;;
4726;SDS011;2377;51.734;8.950;2023-04-25T09:38:39;10.37;;;4.27;;
4726;SDS011;2377;51.734;8.950;2023-04-25T09:41:08;12.13;;;4.07;;
4726;SDS011;2377;51.734;8.950;2023-04-25T09:43:36;10.83;;;3.33;;
4726;SDS011;2377;51.734;8.950;2023-04-25T09:46:07;10.73;;;3.13;;
4726;SDS011;2377;51.734;8.950;2023-04-25T09:48:36;13.97;;;3.87;;
4726;SDS011;2377;51.734;8.950;2023-04-25T09:51:05;10.80;;;3.07;;
4726;SDS011;2377;51.734;8.950;2023-04-25T09:53:33;10.53;;;3.73;;
4726;SDS011;2377;51.734;8.950;2023-04-25T09:56:03;12.20;;;3.20;;
4726;SDS011;2377;51.734;8.950;2023-04-25T09:58:32;9.50;;;2.73;;
4726;SDS011;2377;51.734;8.950;2023-04-25T10:01:02;9.07;;;3.20;;
4726;SDS011;2377;51.734;8.950;2023-04-25T10:03:31;7.37;;;2.60;;
4726;SDS011;2377;51.734;8.950;2023-04-25T10:06:00;15.13;;;3.30;;
4726;SDS011;2377;51.734;8.950;2023-04-25T10:08:31;8.77;;;2.93;;
4726;SDS011;2377;51.734;8.950;2023-04-25T10:11:00;7.93;;;2.80;;
4726;SDS011;2377;51.734;8.950;2023-04-25T10:13:30;6.77;;;2.60;;
4726;SDS011;2377;51.734;8.950;2023-04-25T10:15:59;13.13;;;2.40;;
4726;SDS011;2377;51.734;8.950;2023-04-25T10:18:28;9.13;;;2.80;;
4726;SDS011;2377;51.734;8.950;2023-04-25T10:20:57;9.53;;;2.63;;
4726;SDS011;2377;51.734;8.950;2023-04-25T10:23:26;5.77;;;2.40;;
4726;SDS011;2377;51.734;8.950;2023-04-25T10:25:57;8.70;;;2.77;;
4726;SDS011;2377;51.734;8.950;2023-04-25T10:28:26;11.13;;;3.03;;
4726;SDS011;2377;51.734;8.950;2023-04-25T10:30:56;6.03;;;2.60;;
4726;SDS011;2377;51.734;8.950;2023-04-25T10:33:34;12.33;;;3.00;;
4726;SDS011;2377;51.734;8.950;2023-04-25T10:36:14;15.10;;;2.70;;
4726;SDS011;2377;51.734;8.950;2023-04-25T10:38:44;8.53;;;2.93;;
4726;SDS011;2377;51.734;8.950;2023-04-25T10:41:17;6.80;;;2.50;;
4726;SDS011;2377;51.734;8.950;2023-04-25T10:43:46;7.53;;;2.80;;
4726;SDS011;2377;51.734;8.950;2023-04-25T10:46:16;12.37;;;3.10;;
4726;SDS011;2377;51.734;8.950;2023-04-25T10:48:45;9.50;;;2.70;;
4726;SDS011;2377;51.734;8.950;2023-04-25T10:51:16;5.87;;;2.20;;
4726;SDS011;2377;51.734;8.950;2023-04-25T10:53:58;8.73;;;2.70;;
4726;SDS011;2377;51.734;8.950;2023-04-25T10:56:28;5.40;;;2.40;;
4726;SDS011;2377;51.734;8.950;2023-04-25T10:59:04;6.83;;;2.00;;
4726;SDS011;2377;51.734;8.950;2023-04-25T11:01:35;6.90;;;2.13;;
4726;SDS011;2377;51.734;8.950;2023-04-25T11:04:05;10.23;;;2.40;;
4726;SDS011;2377;51.734;8.950;2023-04-25T11:06:35;9.03;;;2.63;;
4726;SDS011;2377;51.734;8.950;2023-04-25T11:09:15;11.37;;;2.57;;
4726;SDS011;2377;51.734;8.950;2023-04-25T11:11:47;5.90;;;2.13;;
4726;SDS011;2377;51.734;8.950;2023-04-25T11:14:20;7.10;;;2.23;;
4726;SDS011;2377;51.734;8.950;2023-04-25T11:16:47;8.83;;;2.10;;
4726;SDS011;2377;51.734;8.950;2023-04-25T11:19:19;6.30;;;2.23;;
4726;SDS011;2377;51.734;8.950;2023-04-25T11:21:46;6.30;;;2.43;;
4726;SDS011;2377;51.734;8.950;2023-04-25T11:24:13;6.33;;;2.40;;
4726;SDS011;2377;51.734;8.950;2023-04-25T11:26:41;9.43;;;2.67;;
4726;SDS011;2377;51.734;8.950;2023-04-25T11:29:09;12.33;;;2.50;;
4726;SDS011;2377;51.734;8.950;2023-04-25T11:31:36;8.70;;;2.20;;
4726;SDS011;2377;51.734;8.950;2023-04-25T11:34:03;10.37;;;2.80;;
4726;SDS011;2377;51.734;8.950;2023-04-25T11:36:30;6.73;;;2.00;;
4726;SDS011;2377;51.734;8.950;2023-04-25T11:38:57;5.63;;;2.00;;
4726;SDS011;2377;51.734;8.950;2023-04-25T11:41:25;6.77;;;2.30;;
4726;SDS011;2377;51.734;8.950;2023-04-25T11:43:52;8.17;;;2.53;;
4726;SDS011;2377;51.734;8.950;2023-04-25T11:46:20;4.63;;;2.33;;
4726;SDS011;2377;51.734;8.950;2023-04-25T11:48:48;14.47;;;2.90;;
4726;SDS011;2377;51.734;8.950;2023-04-25T11:51:15;8.63;;;2.63;;
4726;SDS011;2377;51.734;8.950;2023-04-25T11:53:42;6.90;;;2.67;;
4726;SDS011;2377;51.734;8.950;2023-04-25T11:56:11;8.37;;;3.10;;
4726;SDS011;2377;51.734;8.950;2023-04-25T11:58:54;5.73;;;2.60;;
4726;SDS011;2377;51.734;8.950;2023-04-25T12:01:30;6.27;;;2.57;;
4726;SDS011;2377;51.734;8.950;2023-04-25T12:03:59;5.30;;;2.07;;
4726;SDS011;2377;51.734;8.950;2023-04-25T12:06:38;7.10;;;2.30;;
4726;SDS011;2377;51.734;8.950;2023-04-25T12:09:07;8.37;;;2.70;;
4726;SDS011;2377;51.734;8.950;2023-04-25T12:11:42;10.43;;;2.47;;
4726;SDS011;2377;51.734;8.950;2023-04-25T12:14:10;5.10;;;2.40;;
4726;SDS011;2377;51.734;8.950;2023-04-25T12:16:43;7.43;;;2.63;;
4726;SDS011;2377;51.734;8.950;2023-04-25T12:19:13;8.93;;;2.40;;
4726;SDS011;2377;51.734;8.950;2023-04-25T12:21:40;7.80;;;2.30;;
4726;SDS011;2377;51.734;8.950;2023-04-25T12:24:09;6.67;;;2.50;;
4726;SDS011;2377;51.734;8.950;2023-04-25T12:26:50;7.90;;;2.70;;
4726;SDS011;2377;51.734;8.950;2023-04-25T12:29:20;9.40;;;2.50;;
4726;SDS011;2377;51.734;8.950;2023-04-25T12:31:50;8.70;;;2.43;;
4726;SDS011;2377;51.734;8.950;2023-04-25T12:34:19;11.20;;;2.63;;
4726;SDS011;2377;51.734;8.950;2023-04-25T12:36:48;6.17;;;2.20;;
4726;SDS011;2377;51.734;8.950;2023-04-25T12:39:16;18.23;;;3.10;;
4726;SDS011;2377;51.734;8.950;2023-04-25T12:41:44;5.43;;;1.87;;
4726;SDS011;2377;51.734;8.950;2023-04-25T12:44:12;7.20;;;2.20;;
4726;SDS011;2377;51.734;8.950;2023-04-25T12:46:39;5.50;;;2.30;;
4726;SDS011;2377;51.734;8.950;2023-04-25T12:49:08;7.13;;;2.27;;
4726;SDS011;2377;51.734;8.950;2023-04-25T12:51:35;5.43;;;2.00;;
4726;SDS011;2377;51.734;8.950;2023-04-25T12:54:03;7.50;;;2.23;;
4726;SDS011;2377;51.734;8.950;2023-04-25T12:56:31;4.60;;;1.80;;
4726;SDS011;2377;51.734;8.950;2023-04-25T12:58:59;5.53;;;2.27;;
4726;SDS011;2377;51.734;8.950;2023-04-25T13:01:26;5.77;;;2.20;;
4726;SDS011;2377;51.734;8.950;2023-04-25T13:03:53;5.50;;;2.00;;
4726;SDS011;2377;51.734;8.950;2023-04-25T13:06:21;6.20;;;2.30;;
4726;SDS011;2377;51.734;8.950;2023-04-25T13:08:48;10.93;;;2.30;;
4726;SDS011;2377;51.734;8.950;2023-04-25T13:11:15;3.80;;;1.50;;
4726;SDS011;2377;51.734;8.950;2023-04-25T13:13:43;5.43;;;2.10;;
4726;SDS011;2377;51.734;8.950;2023-04-25T13:16:10;6.63;;;2.00;;
4726;SDS011;2377;51.734;8.950;2023-04-25T13:18:39;6.30;;;1.63;;
4726;SDS011;2377;51.734;8.950;2023-04-25T13:21:06;6.43;;;2.20;;
4726;SDS011;2377;51.734;8.950;2023-04-25T13:23:37;6.20;;;1.90;;
4726;SDS011;2377;51.734;8.950;2023-04-25T13:26:04;6.70;;;2.00;;
4726;SDS011;2377;51.734;8.950;2023-04-25T13:28:31;4.63;;;1.93;;
4726;SDS011;2377;51.734;8.950;2023-04-25T13:30:57;10.27;;;2.37;;
4726;SDS011;2377;51.734;8.950;2023-04-25T13:33:24;3.43;;;1.90;;
4726;SDS011;2377;51.734;8.950;2023-04-25T13:35:51;8.20;;;2.17;;
4726;SDS011;2377;51.734;8.950;2023-04-25T13:38:21;5.27;;;2.10;;
4726;SDS011;2377;51.734;8.950;2023-04-25T13:40:50;6.53;;;2.40;;
4726;SDS011;2377;51.734;8.950;2023-04-25T13:43:18;5.43;;;2.10;;
4726;SDS011;2377;51.734;8.950;2023-04-25T13:45:46;9.30;;;2.63;;
4726;SDS011;2377;51.734;8.950;2023-04-25T13:48:13;9.37;;;2.57;;
4726;SDS011;2377;51.734;8.950;2023-04-25T13:50:40;11.27;;;2.40;;
4726;SDS011;2377;51.734;8.950;2023-04-25T13:53:07;8.00;;;2.33;;
4726;SDS011;2377;51.734;8.950;2023-04-25T13:55:34;7.77;;;2.10;;
4726;SDS011;2377;51.734;8.950;2023-04-25T13:58:03;3.80;;;1.80;;
4726;SDS011;2377;51.734;8.950;2023-04-25T14:00:32;6.80;;;2.10;;
4726;SDS011;2377;51.734;8.950;2023-04-25T14:03:02;4.83;;;1.97;;
4726;SDS011;2377;51.734;8.950;2023-04-25T14:05:32;4.90;;;2.00;;
4726;SDS011;2377;51.734;8.950;2023-04-25T14:08:03;6.97;;;2.20;;
4726;SDS011;2377;51.734;8.950;2023-04-25T14:10:32;8.67;;;1.90;;
4726;SDS011;2377;51.734;8.950;2023-04-25T14:12:59;6.10;;;1.97;;
4726;SDS011;2377;51.734;8.950;2023-04-25T14:15:29;4.20;;;1.70;;
4726;SDS011;2377;51.734;8.950;2023-04-25T14:17:57;8.63;;;1.70;;
4726;SDS011;2377;51.734;8.950;2023-04-25T14:20:24;8.20;;;2.23;;
4726;SDS011;2377;51.734;8.950;2023-04-25T14:22:51;5.87;;;1.90;;
4726;SDS011;2377;51.734;8.950;2023-04-25T14:25:19;3.50;;;1.50;;
4726;SDS011;2377;51.734;8.950;2023-04-25T14:27:46;5.60;;;1.70;;
4726;SDS011;2377;51.734;8.950;2023-04-25T14:30:14;7.13;;;1.70;;
4726;SDS011;2377;51.734;8.950;2023-04-25T14:32:43;5.80;;;1.80;;
4726;SDS011;2377;51.734;8.950;2023-04-25T14:35:11;6.80;;;2.23;;
4726;SDS011;2377;51.734;8.950;2023-04-25T14:37:38;3.87;;;1.60;;
4726;SDS011;2377;51.734;8.950;2023-04-25T14:40:06;4.17;;;1.80;;
4726;SDS011;2377;51.734;8.950;2023-04-25T14:42:35;6.57;;;2.07;;
4726;SDS011;2377;51.734;8.950;2023-04-25T14:45:02;5.03;;;1.70;;
4726;SDS011;2377;51.734;8.950;2023-04-25T14:47:31;4.37;;;1.77;;
4726;SDS011;2377;51.734;8.950;2023-04-25T14:50:01;5.37;;;2.13;;
4726;SDS011;2377;51.734;8.950;2023-04-25T14:52:29;4.97;;;2.30;;
4726;SDS011;2377;51.734;8.950;2023-04-25T14:54:56;6.00;;;1.70;;
4726;SDS011;2377;51.734;8.950;2023-04-25T14:57:24;4.27;;;1.97;;
4726;SDS011;2377;51.734;8.950;2023-04-25T14:59:51;5.40;;;1.90;;
4726;SDS011;2377;51.734;8.950;2023-04-25T15:02:18;6.30;;;1.60;;
4726;SDS011;2377;51.734;8.950;2023-04-25T15:04:46;10.83;;;3.00;;
4726;SDS011;2377;51.734;8.950;2023-04-25T15:07:14;3.93;;;1.60;;
4726;SDS011;2377;51.734;8.950;2023-04-25T15:09:41;8.33;;;1.80;;